• Join FlightAware (Why Join?)
  • Login
  • US Flag 
08:58PM EDT


 

Airport Tracker/Info


-or-


 

Live Flight TrackerFlight Track Log ✈ SWA34 ✈ 03-May-2013 ✈ KJAX - KORF

Flight Track Log - Related Links

Times and Time Zones

All times are in EDT time to prevent confusion due to time zone crossing. See the SWA34 flight status page for this flight to view local times or setup timezone preferences in your user account.

Time Position Orientation Groundspeed Altitude Reporting Facility
EDT Latitude Longitude Course Direction KTS MPH feet Rate Location/Type
08:34AM 30.4736 -81.6608 90° East 170 196 1,400  Level Jacksonville Center
08:35AM 30.5300 -81.6603 360° North 255 293 4,500 3,000 Climbing Jacksonville Center
08:36AM 30.6053 -81.6761 350° North 274 315 7,800 2,940 Climbing Jacksonville Center
08:37AM 30.6764 -81.6897 351° North 292 336 10,600 2,820 Climbing Jacksonville Center
08:38AM 30.7642 -81.6911 359° North 314 361 13,600 2,940 Climbing Jacksonville Center
08:39AM 30.8514 -81.6583 18° North 319 367 16,500 2,220 Climbing Jacksonville Center
08:40AM 30.9472 -81.6258 16° North 327 376 18,100 2,100 Climbing Jacksonville Center
08:41AM 31.0511 -81.5881 17° North 362 417 20,800 2,400 Climbing Jacksonville Center
08:42AM 31.1594 -81.5550 15° North 385 443 23,000 2,100 Climbing Jacksonville Center
08:43AM 31.2697 -81.5144 17° North 398 458 25,000 2,100 Climbing Jacksonville Center
08:44AM 31.3819 -81.4689 19° North 415 478 27,200 1,920 Climbing Jacksonville Center
08:45AM 31.5086 -81.4256 16° North 429 494 28,900 1,440 Climbing Jacksonville Center
08:46AM 31.6272 -81.3847 16° North 435 501 30,100 1,260 Climbing Jacksonville Center
08:47AM 31.7394 -81.3461 16° North 450 518 31,500 1,620 Climbing Jacksonville Center
08:48AM 31.8706 -81.3000 17° North 455 524 33,400 1,620 Climbing Jacksonville Center
08:49AM 31.9719 -81.2394 27° Northeast 455 524 34,800 780 Climbing Jacksonville Center
08:50AM 32.0542 -81.1350 47° Northeast 434 499 35,000 360 Climbing Jacksonville Center
08:51AM 32.1464 -81.0181 47° Northeast 434 499 35,600 840 Climbing Jacksonville Center
08:52AM 32.2200 -80.9231 47° Northeast 429 494 36,700 660 Climbing Jacksonville Center
08:53AM 32.3103 -80.8081 47° Northeast 424 488 37,000 120 Climbing Jacksonville Center
08:54AM 32.3836 -80.7106 48° Northeast 424 488 37,000  Level Jacksonville Center
08:55AM 32.4631 -80.6028 49° Northeast 424 488 37,000  Level Jacksonville Center
08:56AM 32.5467 -80.4947 47° Northeast 424 488 37,000  Level Jacksonville Center
08:57AM 32.6281 -80.3889 48° Northeast 424 488 37,000  Level Jacksonville Center
08:58AM 32.7117 -80.2781 48° Northeast 424 488 37,000  Level Jacksonville Center
08:59AM 32.7906 -80.1694 49° Northeast 424 488 37,000  Level Jacksonville Center
09:00AM 32.8758 -80.0581 48° Northeast 430 495 37,000  Level Jacksonville Center
09:01AM 32.9697 -79.9586 42° Northeast 435 501 37,000  Level Jacksonville Center
09:02AM 33.0778 -79.8583 38° Northeast 449 517 37,000  Level Jacksonville Center
09:03AM 33.1778 -79.7606 39° Northeast 449 517 37,000  Level Jacksonville Center
09:04AM 33.2756 -79.6678 38° Northeast 449 517 37,000  Level Jacksonville Center
09:05AM 33.3714 -79.5747 39° Northeast 449 517 37,000  Level Jacksonville Center
09:06AM 33.4689 -79.4814 39° Northeast 449 517 37,000  Level Jacksonville Center
09:07AM 33.5644 -79.3856 40° Northeast 449 517 37,000  Level Jacksonville Center
09:08AM 33.6619 -79.2894 39° Northeast 449 517 37,000  Level Jacksonville Center
09:09AM 33.7553 -79.1981 39° Northeast 443 510 37,000 -60 Level Jacksonville Center
09:10AM 33.8444 -79.1119 39° Northeast 443 510 36,900  Descending Jacksonville Center
09:12AM 34.0958 -78.8594 40° Northeast 439 505 37,000  Climbing Washington Center
09:13AM 34.1944 -78.7606 40° Northeast 445 512 36,900  Descending Washington Center
09:14AM 34.2953 -78.6639 38° Northeast 445 512 37,000  Climbing Washington Center
09:15AM 34.3958 -78.5644 39° Northeast 456 525 37,000  Level Washington Center
09:16AM 34.4942 -78.4647 40° Northeast 456 525 37,000 -420 Level Washington Center
09:17AM 34.5925 -78.3647 40° Northeast 456 525 36,200 -900 Descending Washington Center
09:18AM 34.6906 -78.2669 39° Northeast 461 531 35,200 -900 Descending Washington Center
09:19AM 34.7783 -78.1739 41° Northeast 461 531 34,500 -960 Descending Washington Center
09:20AM 34.8722 -78.0731 41° Northeast 461 531 33,400 -1,920 Descending Washington Center
09:21AM 34.9661 -77.9744 41° Northeast 450 518 30,700 -2,340 Descending Washington Center
09:22AM 35.0617 -77.8783 39° Northeast 444 511 28,900 -1,380 Descending Washington Center
09:23AM 35.1556 -77.7794 41° Northeast 439 505 28,000 -960 Descending Washington Center
09:24AM 35.2489 -77.6828 40° Northeast 439 505 27,000 -1,020 Descending Washington Center
09:25AM 35.3403 -77.5908 39° Northeast 434 499 26,000 -1,020 Descending Washington Center
09:26AM 35.4356 -77.5117 34° Northeast 429 494 25,000 -1,080 Descending Washington Center
09:27AM 35.5344 -77.4475 28° Northeast 411 473 23,900 -1,020 Descending Washington Center
09:28AM 35.6314 -77.3836 28° Northeast 399 459 23,000 -480 Descending Washington Center
09:29AM 35.7222 -77.3214 29° Northeast 386 444 23,000  Level Washington Center
09:30AM 35.8169 -77.2569 29° Northeast 381 438 23,000  Level Washington Center
09:31AM 35.9117 -77.1947 28° Northeast 381 438 23,000  Level Washington Center
09:32AM 36.0003 -77.1247 33° Northeast 381 438 23,000 -540 Level Washington Center
09:33AM 36.0950 -77.0622 28° Northeast 381 438 22,000 -1,440 Descending Washington Center
09:34AM 36.1811 -77.0022 29° Northeast 375 432 20,100 -2,040 Descending Washington Center
09:35AM 36.2672 -76.9469 27° Northeast 346 398 18,100 -1,920 Descending Washington Center
09:36AM 36.2989 -76.9244 30° Northeast 338 389 17,600 -1,740 Descending Washington Center
09:36AM 36.3472 -76.8917 29° Northeast 343 395 16,300 -2,220 Descending Washington Center
09:37AM 36.3767 -76.8717 29° Northeast 326 375 15,400 -2,100 Descending Washington Center
09:37AM 36.4125 -76.8206 49° Northeast 323 372 14,200 -2,100 Descending Washington Center
09:38AM 36.4381 -76.7900 44° Northeast 317 365 13,300 -2,040 Descending Washington Center
09:38AM 36.4719 -76.7389 50° Northeast 311 358 12,100 -2,460 Descending Washington Center
09:39AM 36.4950 -76.7056 49° Northeast 299 344 10,800 -2,100 Descending Washington Center
09:39AM 36.5247 -76.6647 48° Northeast 299 344 10,000 -1,500 Descending Washington Center
09:40AM 36.5478 -76.6364 45° Northeast 270 311 9,300 -1,380 Descending Washington Center
09:40AM 36.5711 -76.5928 56° Northeast 276 318 8,700 -1,560 Descending Washington Center
09:41AM 36.5944 -76.5647 44° Northeast 254 292 7,800 -1,800 Descending Washington Center
09:41AM 36.6156 -76.5286 54° Northeast 261 300 6,900 -2,100 Descending Washington Center
09:42AM 36.6386 -76.4978 47° Northeast 251 289 5,600 -1,920 Descending Washington Center
09:42AM 36.6619 -76.4619 51° Northeast 254 292 5,000 -1,380 Descending Washington Center
09:43AM 36.6831 -76.4311 50° Northeast 244 281 4,200 6,180 Descending Washington Center
09:43AM 36.7083 -76.3925 51° Northeast 246 283 11,000 -1,920 Climbing Washington Center
09:44AM 36.7294 -76.3669 44° Northeast 236 272 2,200 -9,540 Descending Washington Center
09:44AM 36.7567 -76.3358 42° Northeast 240 276 1,500 -720 Descending Washington Center
09:45AM 36.7797 -76.3181 32° Northeast 216 249 1,500 60 Level Washington Center
09:46AM 36.8217 -76.2769 38° Northeast 163 188 1,600 -300 Climbing Washington Center
09:47AM 36.8511 -76.2461 40° Northeast 133 153 1,000 -660 Descending Washington Center